Time;durP1;ratioP1;P1;durP2;ratioP2;P2;SDS_P1;SDS_P2;PMS_P1;PMS_P2;Temp;Humidity;BMP_temperature;BMP_pressure;BME280_temperature;BME280_humidity;BME280_pressure;Samples;Min_cycle;Max_cycle;Signal;HPM_P1;HPM_P2
2023/11/19 10:23:21;;;;;;;379.90;352.50;;;;;;;0.36;94.21;100259.70;104472;1293;600325;-57
2023/11/19 10:26:07;;;;;;;390.50;360.90;;;;;;;0.34;94.14;100253.23;104493;1292;59158;-58
2023/11/19 10:28:55;;;;;;;235.40;215.20;;;;;;;0.35;94.16;100243.58;104429;1295;60824;-55
2023/11/19 10:31:55;;;;;;;184.80;169.10;;;;;;;0.37;94.16;100237.52;104531;1292;71668;-56
2023/11/19 10:34:42;;;;;;;152.20;139.60;;;;;;;0.37;94.16;100230.05;104459;1293;68494;-58
2023/11/19 10:37:35;;;;;;;150.90;138.40;;;;;;;0.39;94.03;100228.72;104469;1295;283568;-57
2023/11/19 10:40:21;;;;;;;130.40;119.80;;;;;;;0.42;94.08;100232.68;104761;1289;59511;-55
2023/11/19 10:43:08;;;;;;;;;;;;;;;0.43;94.12;100228.80;104729;1289;58758;-58
2023/11/19 10:46:09;;;;;;;76.10;69.00;;;;;;;0.43;94.17;100224.73;104686;1289;70748;-55
2023/11/19 10:48:55;;;;;;;71.30;64.50;;;;;;;0.45;94.22;100208.16;106144;1289;67563;-60
2023/11/19 10:51:46;;;;;;;73.80;67.20;;;;;;;0.45;94.13;100198.84;106167;1289;70164;-59
2023/11/19 10:54:34;;;;;;;72.50;66.20;;;;;;;0.44;94.20;100189.32;106123;1289;57609;-59
2023/11/19 10:57:23;;;;;;;71.50;65.10;;;;;;;0.44;94.16;100170.16;106173;1289;59402;-60
2023/11/19 11:00:13;;;;;;;67.70;61.80;;;;;;;0.46;94.20;100159.17;106162;1289;73764;-60
2023/11/19 11:03:10;;;;;;;61.80;56.20;;;;;;;0.48;94.21;100177.54;106212;1288;68532;-60
2023/11/19 11:05:56;;;;;;;70.70;64.90;;;;;;;0.50;94.18;100178.42;106076;1289;71393;-61
2023/11/19 11:08:43;;;;;;;54.50;49.70;;;;;;;0.53;94.30;100170.46;106139;1292;58231;-60
2023/11/19 11:11:30;;;;;;;59.30;54.20;;;;;;;0.57;94.31;100155.60;106176;1289;59010;-61
2023/11/19 11:14:18;;;;;;;58.10;53.70;;;;;;;0.62;94.36;100150.60;106225;1288;71539;-61
2023/11/19 11:17:07;;;;;;;732.20;677.30;;;;;;;0.64;94.49;100143.84;106177;1288;67403;-61
2023/11/19 11:19:53;;;;;;;740.50;685.00;;;;;;;0.67;94.44;100136.10;106212;1288;72934;-59
2023/11/19 11:23:13;;;;;;;745.00;689.30;;;;;;;0.72;94.54;100117.86;106154;1289;57569;-60
2023/11/19 11:26:22;;;;;;;734.00;679.00;;;;;;;0.81;94.65;100113.24;105937;1289;58757;-59
2023/11/19 11:29:51;;;;;;;779.10;719.90;;;;;;;0.87;94.59;100115.03;106112;1292;72916;-61
2023/11/19 11:32:50;;;;;;;779.80;720.00;;;;;;;0.91;94.48;100107.12;105956;1292;68610;-61
2023/11/19 11:35:58;;;;;;;774.50;715.40;;;;;;;0.92;94.45;100082.70;106094;1292;71165;-60
2023/11/19 11:38:44;;;;;;;783.30;723.50;;;;;;;0.95;94.54;100094.29;106108;1290;57572;-61
2023/11/19 11:41:30;;;;;;;;;;;;;;;0.96;94.64;100091.60;106113;1290;60573;-60
2023/11/19 11:44:16;;;;;;;750.90;694.40;;;;;;;0.97;94.63;100092.62;106134;1290;72611;-61
2023/11/19 11:47:02;;;;;;;72.20;66.90;;;;;;;0.96;94.69;100086.15;106002;1290;67578;-61
2023/11/19 11:49:51;;;;;;;78.80;73.10;;;;;;;0.95;94.68;100071.71;106112;1289;71174;-61
2023/11/19 11:52:56;;;;;;;93.30;86.50;;;;;;;0.95;94.78;100070.71;106105;1289;57644;-60
2023/11/19 11:55:48;;;;;;;231.00;214.40;;;;;;;0.94;94.92;100072.73;106126;1289;59833;-60
2023/11/19 11:58:37;;;;;;;125.30;116.60;;;;;;;0.93;94.93;100068.30;106093;1292;73021;-58
2023/11/19 12:01:28;;;;;;;115.00;106.60;;;;;;;0.92;94.88;100064.05;106121;1289;68558;-60
2023/11/19 12:04:14;;;;;;;141.60;131.80;;;;;;;0.92;94.85;100057.41;106106;1290;72586;-59
2023/11/19 12:07:06;;;;;;;144.00;134.00;;;;;;;0.92;94.95;100057.42;106078;1291;58477;-59
2023/11/19 12:10:12;;;;;;;157.00;146.70;;;;;;;0.91;94.96;100051.14;106160;1292;59268;-60
2023/11/19 12:12:59;;;;;;;137.20;127.80;;;;;;;0.91;95.03;100052.83;106015;1290;72841;-60
2023/11/19 12:16:08;;;;;;;157.00;146.10;;;;;;;0.93;95.08;100046.41;106114;1289;68042;-59
2023/11/19 12:18:55;;;;;;;151.10;140.50;;;;;;;0.93;95.11;100033.52;106135;1293;72128;-59
2023/11/19 12:21:41;;;;;;;152.10;141.70;;;;;;;0.92;95.06;100031.98;106101;1292;58594;-59
2023/11/19 12:24:27;;;;;;;162.70;151.50;;;;;;;0.90;95.14;100025.67;106136;1290;60285;-59
2023/11/19 12:27:16;;;;;;;166.00;154.50;;;;;;;0.89;95.13;100020.22;106146;1292;71619;-58
2023/11/19 12:30:06;;;;;;;148.90;138.60;;;;;;;0.87;95.22;100018.84;106139;1290;68666;-59
2023/11/19 12:32:56;;;;;;;176.40;164.20;;;;;;;0.85;95.34;100021.54;106077;1292;72125;-58
2023/11/19 12:35:47;;;;;;;150.30;139.40;;;;;;;0.83;95.24;100004.02;106102;1289;57716;-59
2023/11/19 12:38:33;;;;;;;146.00;135.30;;;;;;;0.82;95.30;99995.36;106082;1289;60089;-60
2023/11/19 12:41:22;;;;;;;155.40;144.10;;;;;;;0.84;95.38;99997.08;106049;1289;73958;-58
2023/11/19 12:44:11;;;;;;;157.00;145.60;;;;;;;0.84;95.38;100000.31;106107;1292;69467;-59
2023/11/19 12:47:01;;;;;;;168.00;156.00;;;;;;;0.84;95.40;99998.77;106129;1290;72537;-58
2023/11/19 12:49:57;;;;;;;178.90;166.10;;;;;;;0.84;95.44;99997.23;106123;1291;58324;-60
2023/11/19 12:52:43;;;;;;;131.20;121.60;;;;;;;0.84;95.39;99994.36;106094;1289;60246;-59
2023/11/19 12:55:30;;;;;;;137.00;127.20;;;;;;;0.85;95.47;99992.52;105991;1292;71801;-59
2023/11/19 12:58:32;;;;;;;150.20;139.60;;;;;;;0.85;95.49;99986.92;106135;1290;67231;-59
2023/11/19 13:01:20;;;;;;;245.90;229.40;;;;;;;0.84;95.53;99984.70;106095;1291;71417;-58
2023/11/19 13:04:17;;;;;;;296.60;276.50;;;;;;;0.85;95.56;99980.80;106149;1290;57676;-56
2023/11/19 13:07:04;;;;;;;281.70;263.00;;;;;;;0.87;95.52;99972.69;106130;1290;59215;-58
2023/11/19 13:09:53;;;;;;;314.40;293.80;;;;;;;0.88;95.50;99965.41;106106;1289;71050;-57
2023/11/19 13:12:39;;;;;;;445.80;414.70;;;;;;;0.89;95.60;99956.93;106141;1292;68476;-60
2023/11/19 13:15:26;;;;;;;473.90;441.00;;;;;;;0.88;95.61;99953.88;106105;1290;71405;-58
2023/11/19 13:18:13;;;;;;;421.70;392.60;;;;;;;0.90;95.62;99951.18;106080;1292;58415;-59
2023/11/19 13:21:00;;;;;;;399.60;372.30;;;;;;;0.91;95.67;99952.04;106137;1292;58760;-60
2023/11/19 13:23:46;;;;;;;;;;;;;;;0.92;95.68;99948.83;106109;1292;70814;-59
2023/11/19 13:26:31;;;;;;;;;;;;;;;0.91;95.67;99942.88;106152;1292;66430;-59
2023/11/19 13:29:17;;;;;;;;;;;;;;;0.91;95.66;99943.39;106080;1292;71836;-59
2023/11/19 13:32:04;;;;;;;465.30;432.40;;;;;;;0.91;95.67;99934.05;106097;1290;58702;-59
2023/11/19 13:34:50;;;;;;;449.00;417.70;;;;;;;0.92;95.63;99926.26;106058;1289;60238;-59
2023/11/19 13:37:36;;;;;;;392.30;365.90;;;;;;;0.93;95.56;99922.54;105993;1289;71776;-59
2023/11/19 13:40:24;;;;;;;429.60;400.10;;;;;;;0.92;95.60;99916.59;106219;1289;67540;-60
2023/11/19 13:43:11;;;;;;;470.20;437.60;;;;;;;0.92;95.64;99906.23;106132;1289;72273;-56
2023/11/19 13:45:58;;;;;;;451.60;420.00;;;;;;;0.92;95.67;99905.05;106179;1289;57336;-57
2023/11/19 13:48:44;;;;;;;460.30;427.90;;;;;;;0.92;95.68;99906.23;106196;1293;59025;-56
2023/11/19 13:51:30;;;;;;;466.20;433.10;;;;;;;0.91;95.64;99901.66;106104;1289;71623;-56
2023/11/19 13:54:16;;;;;;;458.30;425.50;;;;;;;0.91;95.64;99895.53;106145;1292;68531;-57
2023/11/19 13:57:03;;;;;;;473.90;439.90;;;;;;;0.90;95.69;99893.66;106151;1289;72420;-56
2023/11/19 13:59:49;;;;;;;448.00;416.20;;;;;;;0.92;95.83;99895.21;106059;1289;58739;-56
2023/11/19 14:02:36;;;;;;;478.50;444.50;;;;;;;0.91;95.76;99891.13;106054;1289;59032;-54
2023/11/19 14:05:23;;;;;;;;;;;;;;;0.91;95.75;99889.44;106148;1289;71834;-56
2023/11/19 14:08:11;;;;;;;559.40;518.30;;;;;;;0.91;95.86;99888.24;106104;1290;67443;-57
2023/11/19 14:10:57;;;;;;;403.70;374.20;;;;;;;0.90;95.78;99890.27;105572;1294;473692;-55
2023/11/19 14:13:43;;;;;;;409.00;380.40;;;;;;;0.88;95.83;99883.63;105774;1292;57452;-57
2023/11/19 14:16:29;;;;;;;383.70;356.90;;;;;;;0.88;95.83;99877.69;105904;1292;58968;-57
2023/11/19 14:19:15;;;;;;;419.90;390.20;;;;;;;0.89;95.83;99877.86;105900;1292;72798;-56
2023/11/19 14:22:01;;;;;;;401.10;373.20;;;;;;;0.91;95.93;99875.02;105912;1292;68730;-56
2023/11/19 14:24:47;;;;;;;405.30;376.30;;;;;;;0.94;95.88;99876.23;105885;1292;71339;-57
2023/11/19 14:27:33;;;;;;;392.20;364.20;;;;;;;0.96;95.91;99878.45;105949;1291;57212;-56
2023/11/19 14:30:19;;;;;;;386.70;359.10;;;;;;;0.96;95.95;99873.20;105990;1295;59014;-56
2023/11/19 14:33:05;;;;;;;392.10;363.20;;;;;;;0.97;95.90;99870.15;105787;1293;71791;-57
2023/11/19 14:35:52;;;;;;;186.50;170.10;;;;;;;0.98;95.90;99866.77;106005;1291;68483;-56
2023/11/19 14:38:38;;;;;;;;;;;;;;;0.99;95.92;99858.64;105992;1295;71363;-59
2023/11/19 14:41:24;;;;;;;79.70;72.00;;;;;;;0.97;95.90;99857.44;106003;1292;57517;-56
2023/11/19 14:44:10;;;;;;;101.80;93.10;;;;;;;0.97;95.96;99849.79;105996;1291;58770;-57
2023/11/19 14:46:56;;;;;;;;;;;;;;;0.97;95.94;99847.26;105970;1291;72758;-60
2023/11/19 14:49:42;;;;;;;85.80;77.30;;;;;;;0.97;96.03;99844.37;106004;1291;67439;-54
2023/11/19 14:52:28;;;;;;;95.00;86.50;;;;;;;0.99;96.13;99843.02;106024;1291;71197;-57
2023/11/19 14:55:14;;;;;;;103.20;94.30;;;;;;;0.99;96.14;99841.50;105873;1293;57765;-57
2023/11/19 14:58:00;;;;;;;107.20;98.10;;;;;;;1.00;96.06;99837.60;106027;1292;58998;-57
2023/11/19 15:00:46;;;;;;;118.90;108.90;;;;;;;1.01;96.13;99837.27;105942;1291;70799;-57
2023/11/19 15:03:32;;;;;;;136.70;125.70;;;;;;;1.02;96.15;99835.92;105866;1292;68220;-56
2023/11/19 15:06:30;;;;;;;162.90;149.50;;;;;;;1.03;96.09;99834.41;105896;1291;71395;-57
2023/11/19 15:09:20;;;;;;;140.80;129.40;;;;;;;1.04;96.08;99833.21;105914;1293;58303;-57
2023/11/19 15:12:15;;;;;;;145.70;134.20;;;;;;;1.07;96.06;99836.45;105993;1291;58879;-57
2023/11/19 15:15:02;;;;;;;137.00;125.00;;;;;;;1.11;96.07;99832.76;105959;1292;73044;-57
2023/11/19 15:17:49;;;;;;;146.60;134.50;;;;;;;1.14;96.20;99829.05;106020;1292;66959;-58
2023/11/19 15:20:36;;;;;;;140.50;129.20;;;;;;;1.16;96.09;99825.85;106026;1295;71133;-58
2023/11/19 15:23:21;;;;;;;164.80;151.50;;;;;;;1.19;96.14;99820.45;106004;1292;58450;-57
2023/11/19 15:26:10;;;;;;;147.90;135.70;;;;;;;1.20;96.03;99818.59;105945;1292;58591;-57
2023/11/19 15:28:57;;;;;;;151.40;139.30;;;;;;;1.22;96.13;99817.08;106000;1291;72282;-58
2023/11/19 15:31:43;;;;;;;134.60;123.40;;;;;;;1.25;96.16;99817.45;105817;1296;68516;-57
2023/11/19 15:34:29;;;;;;;193.70;179.70;;;;;;;1.25;96.19;99817.61;104544;1291;71163;-57
2023/11/19 15:37:16;;;;;;;180.60;167.20;;;;;;;1.26;96.09;99819.48;104665;1296;60482;-57
2023/11/19 15:40:07;;;;;;;193.50;179.40;;;;;;;1.27;96.24;99816.45;104649;1295;60383;-57
2023/11/19 15:42:57;;;;;;;196.80;182.20;;;;;;;1.27;96.17;99814.91;104670;1291;75895;-55
2023/11/19 15:45:43;;;;;;;199.80;185.60;;;;;;;1.28;96.25;99813.40;104601;1290;67625;-57
2023/11/19 15:48:29;;;;;;;216.50;201.20;;;;;;;1.28;96.22;99812.20;104625;1292;71124;-56
2023/11/19 15:51:16;;;;;;;;;;;;;;;1.30;96.21;99811.89;104493;1292;59910;-56
2023/11/19 15:54:05;;;;;;;149.20;137.60;;;;;;;1.29;96.33;99802.20;104534;1292;60491;-57
2023/11/19 15:56:52;;;;;;;157.20;145.40;;;;;;;1.31;96.29;99804.77;104579;1293;72429;-59
2023/11/19 15:59:38;;;;;;;202.00;187.80;;;;;;;1.30;96.56;99803.56;104594;1292;67276;-56
2023/11/19 16:02:24;;;;;;;205.20;190.60;;;;;;;1.29;96.43;99799.48;104541;1293;72244;-54
2023/11/19 16:05:10;;;;;;;213.60;198.30;;;;;;;1.31;96.49;99792.04;104511;1291;60485;-57
2023/11/19 16:07:56;;;;;;;215.10;200.00;;;;;;;1.34;96.49;99793.25;104505;1291;62488;-58
2023/11/19 16:10:43;;;;;;;;;;;;;;;1.35;96.44;99792.73;104607;1291;72369;-57
2023/11/19 16:13:30;;;;;;;148.90;136.50;;;;;;;1.36;96.44;99788.33;104621;1291;66293;-59
2023/11/19 16:16:16;;;;;;;203.30;188.70;;;;;;;1.35;96.36;99788.48;104601;1291;71239;-55
2023/11/19 16:19:04;;;;;;;;;;;;;;;1.35;96.42;99792.56;104616;1295;60172;-54
2023/11/19 16:21:50;;;;;;;263.90;243.40;;;;;;;1.33;96.33;99787.98;104618;1292;60289;-55
2023/11/19 16:24:37;;;;;;;238.20;220.40;;;;;;;1.35;96.45;99785.10;104592;1291;72364;-57
2023/11/19 16:27:24;;;;;;;278.00;257.90;;;;;;;1.35;96.44;99786.13;104630;1292;68741;-57
2023/11/19 16:30:11;;;;;;;247.60;229.30;;;;;;;1.37;96.42;99787.16;104597;1292;71315;-53
2023/11/19 16:33:01;;;;;;;238.60;219.90;;;;;;;1.41;96.51;99785.99;105886;1292;59089;-57
2023/11/19 16:35:47;;;;;;;274.10;253.60;;;;;;;1.48;96.61;99779.44;105862;1292;59036;-57
2023/11/19 16:38:33;;;;;;;213.90;197.20;;;;;;;1.56;96.89;99786.42;106010;1292;73479;-58
2023/11/19 16:41:21;;;;;;;196.20;180.00;;;;;;;1.63;96.82;99787.83;105973;1291;68271;-57
2023/11/19 16:44:07;;;;;;;211.10;193.50;;;;;;;1.71;96.85;99783.13;105984;1292;72573;-58
2023/11/19 16:46:53;;;;;;;176.40;161.80;;;;;;;1.78;97.12;99777.73;105875;1292;58764;-59
2023/11/19 16:49:39;;;;;;;177.30;162.90;;;;;;;1.80;97.01;99786.74;105997;1291;58859;-58
2023/11/19 16:52:25;;;;;;;182.80;166.50;;;;;;;1.81;96.79;99783.19;105985;1291;72430;-58
2023/11/19 16:55:11;;;;;;;188.20;171.70;;;;;;;1.81;96.68;99784.37;105996;1291;68355;-56
2023/11/19 16:57:59;;;;;;;209.60;191.80;;;;;;;1.82;96.66;99776.39;105986;1291;72504;-58
2023/11/19 17:00:45;;;;;;;268.80;247.80;;;;;;;1.88;97.10;99778.64;105936;1291;59535;-57
2023/11/19 17:03:31;;;;;;;291.20;269.10;;;;;;;1.87;96.91;99776.26;105845;1292;58834;-58
2023/11/19 17:06:17;;;;;;;344.70;318.10;;;;;;;1.91;96.86;99778.99;105942;1292;72470;-57
2023/11/19 17:09:04;;;;;;;361.50;334.60;;;;;;;1.97;96.91;99779.89;105894;1291;67511;-58
2023/11/19 17:11:50;;;;;;;390.60;357.00;;;;;;;2.03;96.94;99776.84;105971;1292;72115;-58
2023/11/19 17:14:36;;;;;;;319.90;293.00;;;;;;;2.06;97.20;99779.42;105993;1291;58068;-58
2023/11/19 17:17:22;;;;;;;1238.50;999.90;;;;;;;2.08;97.20;99784.35;105950;1291;61487;-57
2023/11/19 17:20:09;;;;;;;1215.10;999.90;;;;;;;2.09;97.00;99773.12;105991;1291;72625;-58
2023/11/19 17:22:55;;;;;;;304.90;280.40;;;;;;;2.14;97.02;99775.86;105920;1291;68415;-56
2023/11/19 17:25:41;;;;;;;257.60;235.50;;;;;;;2.19;97.18;99776.39;105981;1291;72623;-58
2023/11/19 17:28:27;;;;;;;354.50;322.80;;;;;;;2.16;96.88;99774.34;105937;1292;58387;-58
2023/11/19 17:31:14;;;;;;;1098.20;985.20;;;;;;;2.25;97.16;99775.39;105905;1292;60042;-58
2023/11/19 17:34:00;;;;;;;;;;;;;;;2.32;97.44;99777.13;105925;1292;72554;-58
2023/11/19 17:36:45;;;;;;;;;;;;;;;2.42;97.75;99777.84;105904;1292;67537;-55
2023/11/19 17:39:32;;;;;;;1101.90;987.90;;;;;;;2.51;97.90;99783.99;105964;1291;71388;-54
2023/11/19 17:42:19;;;;;;;1075.00;968.30;;;;;;;2.51;97.58;99781.79;105916;1292;58476;-56
2023/11/19 17:45:06;;;;;;;1087.30;978.20;;;;;;;2.62;97.86;99785.04;105983;1291;60019;-55
2023/11/19 17:47:52;;;;;;;1071.90;964.90;;;;;;;2.70;97.72;99784.70;105950;1291;72591;-56
2023/11/19 17:50:38;;;;;;;1059.30;954.60;;;;;;;2.81;97.93;99776.73;105920;1291;67427;-55
2023/11/19 17:53:24;;;;;;;1045.50;943.70;;;;;;;2.93;98.05;99784.23;105899;1291;71148;-55
2023/11/19 17:56:10;;;;;;;1089.40;978.00;;;;;;;2.98;97.95;99777.44;105987;1291;58813;-57
2023/11/19 17:58:56;;;;;;;1051.10;949.10;;;;;;;3.07;97.87;99783.75;106003;1291;60891;-55
2023/11/19 18:01:43;;;;;;;1070.90;966.00;;;;;;;3.08;97.60;99787.66;105923;1291;72546;-57
2023/11/19 18:04:29;;;;;;;1057.80;954.50;;;;;;;3.06;97.40;99783.58;105936;1292;67276;-56
2023/11/19 18:07:18;;;;;;;1047.20;943.90;;;;;;;3.05;97.28;99786.98;105967;1291;71385;-56
2023/11/19 18:10:10;;;;;;;1144.60;999.90;;;;;;;3.04;97.25;99786.46;105907;1291;58318;-53
2023/11/19 18:12:56;;;;;;;1133.80;999.90;;;;;;;2.99;97.03;99784.92;105946;1291;60869;-56
2023/11/19 18:15:43;;;;;;;1137.00;999.90;;;;;;;2.94;97.01;99793.43;105899;1292;72366;-54
2023/11/19 18:18:29;;;;;;;1146.30;999.90;;;;;;;2.92;97.07;99798.70;105998;1291;67443;-54
2023/11/19 18:21:15;;;;;;;1128.50;999.90;;;;;;;2.88;96.93;99796.48;105996;1292;71169;-57
2023/11/19 18:24:01;;;;;;;1115.40;996.10;;;;;;;2.82;96.92;99802.09;106012;1291;58201;-56
2023/11/19 18:26:47;;;;;;;1120.30;999.50;;;;;;;2.81;97.03;99798.00;105966;1292;59648;-55
2023/11/19 18:29:33;;;;;;;1122.00;998.80;;;;;;;2.81;97.10;99798.52;105976;1291;72314;-56
2023/11/19 18:32:19;;;;;;;1119.80;998.80;;;;;;;2.81;97.07;99796.81;106010;1291;67101;-56
2023/11/19 18:35:06;;;;;;;1114.10;997.60;;;;;;;2.78;97.07;99796.46;105974;1292;71086;-56
2023/11/19 18:37:52;;;;;;;1139.00;999.90;;;;;;;2.77;97.14;99797.66;106052;1291;58665;-56
2023/11/19 18:40:38;;;;;;;1195.80;999.90;;;;;;;2.76;97.08;99794.75;106041;1291;60226;-56
2023/11/19 18:43:24;;;;;;;1157.20;999.90;;;;;;;2.76;97.05;99797.48;106044;1292;71506;-56
2023/11/19 18:46:13;;;;;;;1147.60;999.90;;;;;;;2.76;97.06;99800.38;106030;1291;68609;-56
2023/11/19 18:48:59;;;;;;;1155.90;999.90;;;;;;;2.73;96.99;99798.66;105977;1291;72610;-56
2023/11/19 18:51:45;;;;;;;;;;;;;;;2.72;97.05;99799.67;105942;1291;57700;-57
2023/11/19 18:54:31;;;;;;;;;;;;;;;2.75;97.22;99798.32;106014;1292;58833;-56
2023/11/19 18:57:18;;;;;;;814.50;743.50;;;;;;;2.75;97.21;99796.97;106017;1291;72626;-57
2023/11/19 19:00:06;;;;;;;1155.50;999.90;;;;;;;2.77;97.29;99796.30;105924;1291;67655;-57
2023/11/19 19:02:52;;;;;;;1161.70;999.90;;;;;;;2.77;97.32;99794.09;105436;1291;73325;-58
2023/11/19 19:05:39;;;;;;;860.50;786.70;;;;;;;2.78;97.39;99788.64;104626;1291;60494;-57
2023/11/19 19:08:26;;;;;;;883.70;804.80;;;;;;;2.79;97.40;99792.55;104637;1291;60431;-56
2023/11/19 19:11:12;;;;;;;940.40;854.70;;;;;;;2.80;97.43;99793.74;104612;1291;72575;-58
2023/11/19 19:14:00;;;;;;;944.90;856.60;;;;;;;2.87;97.79;99790.70;104541;1292;67228;-58
2023/11/19 19:16:46;;;;;;;910.70;830.70;;;;;;;3.03;98.24;99789.36;104370;1291;241500;-57
2023/11/19 19:19:32;;;;;;;1500.60;999.90;;;;;;;3.41;99.74;99792.24;104563;1296;60086;-57
2023/11/19 19:22:18;;;;;;;;;;;;;;;3.75;99.95;99792.19;104583;1292;60454;-58
2023/11/19 19:25:05;;;;;;;1468.00;999.90;;;;;;;3.98;99.99;99794.36;104685;1292;74375;-56
2023/11/19 19:27:51;;;;;;;1503.10;999.90;;;;;;;4.29;100.00;99798.85;105962;1291;68665;-58
2023/11/19 19:30:37;;;;;;;1556.50;999.90;;;;;;;4.86;100.00;99802.14;105908;1291;70472;-59
2023/11/19 19:33:23;;;;;;;852.60;782.80;;;;;;;5.54;100.00;99801.79;105959;1293;58524;-56
2023/11/19 19:36:09;;;;;;;1076.90;968.90;;;;;;;5.92;100.00;99798.17;105992;1293;58908;-56
2023/11/19 19:38:55;;;;;;;1013.00;917.90;;;;;;;6.19;100.00;99801.15;106024;1291;72633;-54
2023/11/19 19:41:41;;;;;;;1093.50;980.70;;;;;;;6.30;100.00;99802.70;105928;1292;68320;-57
2023/11/19 19:44:28;;;;;;;1095.00;981.70;;;;;;;6.47;100.00;99804.05;105966;1291;71397;-56
2023/11/19 19:47:14;;;;;;;1109.40;992.00;;;;;;;6.52;100.00;99807.58;105771;1292;58346;-56
2023/11/19 19:50:00;;;;;;;1119.40;996.10;;;;;;;6.64;100.00;99813.08;106023;1291;58594;-56
2023/11/19 19:52:46;;;;;;;1056.60;953.40;;;;;;;6.69;100.00;99812.33;105996;1291;73785;-57
2023/11/19 19:55:32;;;;;;;1145.80;999.90;;;;;;;6.74;100.00;99812.08;105974;1291;68428;-56
2023/11/19 19:58:20;;;;;;;1108.80;993.50;;;;;;;6.84;100.00;99815.01;105948;1291;71548;-57
2023/11/19 20:01:07;;;;;;;1173.30;999.90;;;;;;;6.97;100.00;99816.89;106036;1291;58478;-56
2023/11/19 20:03:54;;;;;;;1063.90;957.00;;;;;;;7.05;100.00;99816.95;105998;1291;60192;-57
2023/11/19 20:06:40;;;;;;;1141.20;999.40;;;;;;;7.17;100.00;99813.16;106002;1291;73756;-57
2023/11/19 20:09:26;;;;;;;1253.60;999.90;;;;;;;7.18;100.00;99812.64;105947;1291;69123;-57
2023/11/19 20:12:12;;;;;;;1305.90;999.90;;;;;;;7.14;100.00;99814.42;105975;1292;70747;-56
2023/11/19 20:15:01;;;;;;;1371.20;999.90;;;;;;;7.17;100.00;99818.48;105960;1291;58197;-56
2023/11/19 20:17:46;;;;;;;1133.60;999.90;;;;;;;7.15;100.00;99820.58;105950;1292;59104;-57
2023/11/19 20:20:32;;;;;;;1462.20;999.90;;;;;;;7.18;100.00;99821.72;106023;1291;74429;-57
2023/11/19 20:23:19;;;;;;;1433.10;999.90;;;;;;;7.21;100.00;99823.57;105945;1292;67923;-57
2023/11/19 20:26:05;;;;;;;1436.40;999.90;;;;;;;7.25;100.00;99823.67;105947;1291;71136;-57
2023/11/19 20:28:51;;;;;;;;;;;;;;;7.26;100.00;99826.06;105977;1292;58265;-56
2023/11/19 20:31:42;;;;;;;1301.20;999.90;;;;;;;7.26;100.00;99832.58;105983;1292;58931;-58
2023/11/19 20:34:28;;;;;;;1431.10;999.90;;;;;;;7.26;100.00;99830.35;106004;1292;72529;-57
2023/11/19 20:37:14;;;;;;;1376.80;999.90;;;;;;;7.28;100.00;99832.18;105936;1292;68621;-57
2023/11/19 20:40:00;;;;;;;1472.10;999.90;;;;;;;7.28;100.00;99833.38;106009;1292;71364;-57
2023/11/19 20:42:46;;;;;;;1550.90;999.90;;;;;;;7.30;100.00;99834.70;106001;1291;58550;-57
2023/11/19 20:45:32;;;;;;;1654.50;999.90;;;;;;;7.32;100.00;99833.48;105996;1291;59698;-56
2023/11/19 20:48:18;;;;;;;1625.00;999.90;;;;;;;7.36;100.00;99835.14;106039;1292;73728;-57
2023/11/19 20:51:05;;;;;;;1114.10;994.50;;;;;;;7.43;100.00;99838.46;105998;1291;67894;-57
2023/11/19 20:53:51;;;;;;;1106.70;989.10;;;;;;;7.49;100.00;99838.20;106009;1291;72617;-57
2023/11/19 20:56:37;;;;;;;1120.40;998.10;;;;;;;7.54;100.00;99832.96;106006;1291;58471;-57
2023/11/19 20:59:23;;;;;;;1114.50;993.60;;;;;;;7.54;100.00;99833.66;106021;1291;60198;-57
2023/11/19 21:02:09;;;;;;;;;;;;;;;7.55;100.00;99830.04;106029;1291;72398;-57
2023/11/19 21:04:55;;;;;;;1235.50;999.90;;;;;;;7.55;100.00;99833.98;105928;1291;67306;-57
2023/11/19 21:07:41;;;;;;;1350.30;999.90;;;;;;;7.58;100.00;99834.80;106013;1291;71321;-56
2023/11/19 21:10:27;;;;;;;1498.40;999.90;;;;;;;7.60;100.00;99837.00;105984;1291;58293;-57
2023/11/19 21:13:13;;;;;;;;;;;;;;;7.58;100.00;99833.76;106007;1292;60320;-57
2023/11/19 21:16:02;;;;;;;1412.10;999.90;;;;;;;7.57;100.00;99831.38;106023;1292;73744;-56
2023/11/19 21:18:48;;;;;;;1406.80;999.90;;;;;;;7.61;100.00;99834.57;106051;1291;67491;-57
2023/11/19 21:21:34;;;;;;;1552.50;999.90;;;;;;;7.62;100.00;99835.41;105874;1292;71356;-57
2023/11/19 21:24:20;;;;;;;;;;;;;;;7.64;100.00;99836.92;106032;1292;58762;-57
2023/11/19 21:27:07;;;;;;;1528.20;999.90;;;;;;;7.65;100.00;99832.96;106000;1291;58858;-57
2023/11/19 21:29:55;;;;;;;1607.00;999.90;;;;;;;7.63;100.00;99834.88;105924;1292;74160;-57
2023/11/19 21:32:41;;;;;;;1453.60;999.90;;;;;;;7.64;100.00;99832.98;104701;1292;67489;-56
2023/11/19 21:35:27;;;;;;;1599.20;999.90;;;;;;;7.66;100.00;99830.37;104671;1292;73984;-58
2023/11/19 21:38:14;;;;;;;1696.20;999.90;;;;;;;7.66;100.00;99832.44;104593;1292;62857;-57
2023/11/19 21:41:00;;;;;;;1948.50;999.90;;;;;;;7.65;100.00;99837.09;104655;1292;60579;-59
2023/11/19 21:43:46;;;;;;;1698.30;999.90;;;;;;;7.62;100.00;99837.80;104638;1292;74355;-59
2023/11/19 21:46:33;;;;;;;1819.20;999.90;;;;;;;7.61;100.00;99841.42;104649;1292;71415;-58
2023/11/19 21:49:19;;;;;;;773.50;710.30;;;;;;;7.60;100.00;99839.90;104641;1291;71309;-59
2023/11/19 21:52:05;;;;;;;772.30;710.10;;;;;;;7.61;100.00;99845.55;104675;1291;60466;-58
2023/11/19 21:54:52;;;;;;;712.60;657.70;;;;;;;7.60;100.00;99843.67;104635;1292;59280;-59
2023/11/19 21:57:40;;;;;;;768.90;707.10;;;;;;;7.58;100.00;99845.23;104645;1292;72457;-58
2023/11/19 22:00:26;;;;;;;680.30;626.50;;;;;;;7.58;100.00;99843.38;104567;1294;67269;-58
2023/11/19 22:03:12;;;;;;;757.00;696.30;;;;;;;7.57;100.00;99841.48;104623;1292;71179;-58
2023/11/19 22:05:59;;;;;;;697.00;642.10;;;;;;;7.60;100.00;99843.16;104575;1292;60472;-59
2023/11/19 22:08:46;;;;;;;695.40;640.70;;;;;;;7.61;100.00;99844.70;104629;1292;61677;-58
2023/11/19 22:11:32;;;;;;;727.00;668.40;;;;;;;7.61;100.00;99841.77;105864;1293;72573;-59
2023/11/19 22:14:18;;;;;;;645.20;594.30;;;;;;;7.63;100.00;99842.08;105486;1293;68798;-56
2023/11/19 22:17:04;;;;;;;721.80;664.00;;;;;;;7.62;100.00;99839.34;104613;1294;73963;-56
2023/11/19 22:19:51;;;;;;;696.70;641.70;;;;;;;7.63;100.00;99836.42;104623;1292;60382;-62
2023/11/19 22:22:38;;;;;;;;;;;;;;;7.64;100.00;99837.77;104612;1294;62222;-58
2023/11/19 22:25:26;;;;;;;526.50;485.60;;;;;;;7.62;100.00;99835.06;104636;1291;72387;-59
2023/11/19 22:28:14;;;;;;;677.60;624.80;;;;;;;7.61;100.00;99839.02;104642;1291;67510;-59
2023/11/19 22:31:00;;;;;;;729.90;672.10;;;;;;;7.60;100.00;99839.04;104599;1292;71692;-57
2023/11/19 22:33:48;;;;;;;708.70;654.20;;;;;;;7.59;100.00;99840.77;104583;1292;60493;-58
2023/11/19 22:36:35;;;;;;;575.40;529.00;;;;;;;7.57;100.00;99840.45;104242;1292;505494;-58
2023/11/19 22:39:21;;;;;;;738.30;679.60;;;;;;;7.57;100.00;99839.09;104543;1292;74200;-58
2023/11/19 22:42:07;;;;;;;745.10;686.50;;;;;;;7.58;100.00;99838.05;104528;1292;70107;-58
2023/11/19 22:44:53;;;;;;;717.20;659.70;;;;;;;7.58;100.00;99833.08;104516;1296;71867;-58
2023/11/19 22:47:40;;;;;;;741.20;682.60;;;;;;;7.57;100.00;99832.06;104538;1292;60358;-57
2023/11/19 22:50:26;;;;;;;776.70;713.50;;;;;;;7.57;100.00;99831.55;104591;1295;60453;-59
2023/11/19 22:53:13;;;;;;;780.10;717.10;;;;;;;7.57;100.00;99833.95;104655;1292;73240;-59
2023/11/19 22:55:59;;;;;;;;;;;;;;;7.56;100.00;99837.39;104645;1292;67347;-59
2023/11/19 22:58:49;;;;;;;;;;;;;;;7.55;100.00;99837.91;104595;1292;71339;-57